Council Hill, Oklahoma
Current Conditions -  °F | °C
As of 1:53 PM on Thursday 23 Oct 2014 (Local Time) from KMKO Reporting Station
Light Rain Light Rain  
Wind Chill: 15°   Ceiling: 4800
Heat Index: 15°   Visibility: 10mi
Dew Point: 14°   Wind: 8mph
Humidity: 93%   Direction: 130°SE
Pressure: 30.16"   Gusts: NA
Location:  35.56°N, 95.65°W
Report Text: KMKO 231853Z AUTO 13007KT 10SM -RA FEW039 OVC048 15/14 A3016 RMK AO2 SLP210 P0006 T01500139
Loading
Personal Weather Stations






























Interactive Weather Map
Tropical Storm Tracking
New forecast layout! Learn more

10-Day Weather Forecast

Advertisements
Track Severe Weather on mobile